sensor_id;sensor_type;location;lat;lon;timestamp;pressure;altitude;pressure_sealevel;temperature;humidity
20009;BME280;10165;42.662;23.260;2023-08-06T00:00:55;93011.94;;;23.01;68.19
20009;BME280;10165;42.662;23.260;2023-08-06T00:03:22;93054.97;;;23.24;68.95
20009;BME280;10165;42.662;23.260;2023-08-06T00:05:49;93062.97;;;23.10;69.46
20009;BME280;10165;42.662;23.260;2023-08-06T00:08:15;93059.91;;;23.48;68.41
20009;BME280;10165;42.662;23.260;2023-08-06T00:10:43;93067.97;;;23.20;69.84
20009;BME280;10165;42.662;23.260;2023-08-06T00:13:09;93083.41;;;23.14;70.06
20009;BME280;10165;42.662;23.260;2023-08-06T00:15:36;93071.91;;;23.19;69.21
20009;BME280;10165;42.662;23.260;2023-08-06T00:18:03;93059.19;;;22.55;72.48
20009;BME280;10165;42.662;23.260;2023-08-06T00:20:30;93067.38;;;22.33;73.54
20009;BME280;10165;42.662;23.260;2023-08-06T00:22:57;93072.53;;;22.83;71.14
20009;BME280;10165;42.662;23.260;2023-08-06T00:25:23;93067.41;;;23.34;68.37
20009;BME280;10165;42.662;23.260;2023-08-06T00:27:50;93073.88;;;22.79;70.54
20009;BME280;10165;42.662;23.260;2023-08-06T00:30:17;93064.34;;;23.23;69.96
20009;BME280;10165;42.662;23.260;2023-08-06T00:32:44;93057.94;;;22.68;71.72
20009;BME280;10165;42.662;23.260;2023-08-06T00:35:11;93046.56;;;23.01;70.59
20009;BME280;10165;42.662;23.260;2023-08-06T00:37:40;93031.66;;;22.74;70.63
20009;BME280;10165;42.662;23.260;2023-08-06T00:40:07;93042.19;;;22.42;71.35
20009;BME280;10165;42.662;23.260;2023-08-06T00:42:35;93043.72;;;23.04;70.34
20009;BME280;10165;42.662;23.260;2023-08-06T00:45:02;93039.81;;;23.14;69.84
20009;BME280;10165;42.662;23.260;2023-08-06T00:47:29;93044.53;;;23.23;68.84
20009;BME280;10165;42.662;23.260;2023-08-06T00:49:56;93039.78;;;23.54;66.39
20009;BME280;10165;42.662;23.260;2023-08-06T00:52:23;93040.88;;;22.77;68.87
20009;BME280;10165;42.662;23.260;2023-08-06T00:54:50;93042.94;;;22.95;68.21
20009;BME280;10165;42.662;23.260;2023-08-06T00:57:17;93041.94;;;23.10;66.90
20009;BME280;10165;42.662;23.260;2023-08-06T00:59:44;93030.66;;;22.90;67.50
20009;BME280;10165;42.662;23.260;2023-08-06T01:02:11;93037.84;;;22.22;70.45
20009;BME280;10165;42.662;23.260;2023-08-06T01:04:39;93026.44;;;22.36;70.99
20009;BME280;10165;42.662;23.260;2023-08-06T01:07:10;93011.91;;;22.61;69.89
20009;BME280;10165;42.662;23.260;2023-08-06T01:15:28;93008.38;;;22.82;69.40
20009;BME280;10165;42.662;23.260;2023-08-06T01:17:55;92989.47;;;22.79;69.50
20009;BME280;10165;42.662;23.260;2023-08-06T01:20:28;92999.00;;;22.53;71.23
20009;BME280;10165;42.662;23.260;2023-08-06T01:22:55;93007.47;;;22.55;70.93
20009;BME280;10165;42.662;23.260;2023-08-06T01:25:34;93007.22;;;22.62;70.79
20009;BME280;10165;42.662;23.260;2023-08-06T01:28:15;92999.72;;;22.44;71.14
20009;BME280;10165;42.662;23.260;2023-08-06T01:30:46;92995.09;;;22.54;70.11
20009;BME280;10165;42.662;23.260;2023-08-06T01:33:16;92992.00;;;22.73;70.22
20009;BME280;10165;42.662;23.260;2023-08-06T01:35:46;92980.16;;;22.67;70.29
20009;BME280;10165;42.662;23.260;2023-08-06T01:38:14;92986.69;;;22.70;69.95
20009;BME280;10165;42.662;23.260;2023-08-06T01:40:40;92989.94;;;22.86;69.99
20009;BME280;10165;42.662;23.260;2023-08-06T01:43:07;92983.09;;;22.73;69.87
20009;BME280;10165;42.662;23.260;2023-08-06T01:45:34;92982.06;;;22.49;71.18
20009;BME280;10165;42.662;23.260;2023-08-06T01:48:01;92995.19;;;22.72;70.52
20009;BME280;10165;42.662;23.260;2023-08-06T01:50:28;92988.03;;;23.05;68.47
20009;BME280;10165;42.662;23.260;2023-08-06T01:52:55;92996.91;;;22.88;69.30
20009;BME280;10165;42.662;23.260;2023-08-06T01:55:22;92987.16;;;22.37;71.08
20009;BME280;10165;42.662;23.260;2023-08-06T01:57:48;92980.53;;;22.48;71.46
20009;BME280;10165;42.662;23.260;2023-08-06T02:00:15;92974.88;;;22.33;71.03
20009;BME280;10165;42.662;23.260;2023-08-06T02:02:42;92969.59;;;23.09;69.71
20009;BME280;10165;42.662;23.260;2023-08-06T02:05:09;92959.59;;;23.15;68.90
20009;BME280;10165;42.662;23.260;2023-08-06T02:07:35;92964.56;;;23.08;68.56
20009;BME280;10165;42.662;23.260;2023-08-06T02:10:02;92967.25;;;23.48;67.15
20009;BME280;10165;42.662;23.260;2023-08-06T02:12:29;92963.16;;;23.70;66.30
20009;BME280;10165;42.662;23.260;2023-08-06T02:14:56;92976.44;;;23.96;65.57
20009;BME280;10165;42.662;23.260;2023-08-06T02:17:22;92985.88;;;23.58;66.36
20009;BME280;10165;42.662;23.260;2023-08-06T02:19:49;92995.53;;;23.96;65.68
20009;BME280;10165;42.662;23.260;2023-08-06T02:22:16;93001.47;;;23.85;65.70
20009;BME280;10165;42.662;23.260;2023-08-06T02:24:43;93000.09;;;23.90;66.58
20009;BME280;10165;42.662;23.260;2023-08-06T02:27:09;92993.44;;;22.96;68.69
20009;BME280;10165;42.662;23.260;2023-08-06T02:29:40;92958.91;;;22.75;70.55
20009;BME280;10165;42.662;23.260;2023-08-06T02:32:07;92952.53;;;22.69;70.95
20009;BME280;10165;42.662;23.260;2023-08-06T02:34:34;92973.94;;;22.98;70.58
20009;BME280;10165;42.662;23.260;2023-08-06T02:37:00;92996.84;;;23.18;70.41
20009;BME280;10165;42.662;23.260;2023-08-06T02:39:27;93015.88;;;23.09;69.61
20009;BME280;10165;42.662;23.260;2023-08-06T02:41:54;93014.22;;;23.12;69.99
20009;BME280;10165;42.662;23.260;2023-08-06T02:44:21;93009.66;;;23.00;69.51
20009;BME280;10165;42.662;23.260;2023-08-06T02:46:48;93002.22;;;22.91;71.00
20009;BME280;10165;42.662;23.260;2023-08-06T02:49:15;92984.91;;;23.34;69.56
20009;BME280;10165;42.662;23.260;2023-08-06T02:51:41;92971.81;;;22.62;71.55
20009;BME280;10165;42.662;23.260;2023-08-06T02:54:08;92954.16;;;23.15;70.54
20009;BME280;10165;42.662;23.260;2023-08-06T02:56:35;92933.03;;;23.56;68.27
20009;BME280;10165;42.662;23.260;2023-08-06T02:59:01;92948.25;;;23.35;69.32
20009;BME280;10165;42.662;23.260;2023-08-06T03:01:28;92964.00;;;23.31;69.14
20009;BME280;10165;42.662;23.260;2023-08-06T03:03:55;92945.84;;;23.19;69.99
20009;BME280;10165;42.662;23.260;2023-08-06T03:06:22;92922.03;;;21.90;75.88
20009;BME280;10165;42.662;23.260;2023-08-06T03:08:49;92932.16;;;22.12;77.17
20009;BME280;10165;42.662;23.260;2023-08-06T03:11:16;92963.72;;;22.40;76.85
20009;BME280;10165;42.662;23.260;2023-08-06T03:13:42;92972.72;;;22.90;73.11
20009;BME280;10165;42.662;23.260;2023-08-06T03:16:09;92941.66;;;22.69;72.82
20009;BME280;10165;42.662;23.260;2023-08-06T03:18:36;92915.25;;;22.17;76.22
20009;BME280;10165;42.662;23.260;2023-08-06T03:21:02;92921.91;;;22.56;74.86
20009;BME280;10165;42.662;23.260;2023-08-06T03:23:29;92952.72;;;22.83;73.56
20009;BME280;10165;42.662;23.260;2023-08-06T03:25:56;92945.63;;;22.86;73.30
20009;BME280;10165;42.662;23.260;2023-08-06T03:28:23;92932.06;;;23.22;70.68
20009;BME280;10165;42.662;23.260;2023-08-06T03:31:01;92943.25;;;23.24;71.21
20009;BME280;10165;42.662;23.260;2023-08-06T03:33:29;92966.63;;;23.44;70.21
20009;BME280;10165;42.662;23.260;2023-08-06T03:35:56;92961.81;;;23.57;70.98
20009;BME280;10165;42.662;23.260;2023-08-06T03:38:22;92966.66;;;23.53;69.67
20009;BME280;10165;42.662;23.260;2023-08-06T03:40:49;92975.94;;;23.15;70.23
20009;BME280;10165;42.662;23.260;2023-08-06T03:43:16;92977.72;;;22.91;72.27
20009;BME280;10165;42.662;23.260;2023-08-06T03:45:43;92972.13;;;23.04;72.39
20009;BME280;10165;42.662;23.260;2023-08-06T03:48:10;92980.63;;;23.06;72.47
20009;BME280;10165;42.662;23.260;2023-08-06T03:50:36;92996.06;;;23.09;72.62
20009;BME280;10165;42.662;23.260;2023-08-06T03:53:04;92994.59;;;22.77;74.55
20009;BME280;10165;42.662;23.260;2023-08-06T03:55:31;92985.88;;;22.91;73.62
20009;BME280;10165;42.662;23.260;2023-08-06T03:57:57;92991.34;;;22.91;74.09
20009;BME280;10165;42.662;23.260;2023-08-06T04:00:24;92999.16;;;22.80;74.61
20009;BME280;10165;42.662;23.260;2023-08-06T04:02:51;92996.53;;;23.07;74.77
20009;BME280;10165;42.662;23.260;2023-08-06T04:05:18;92994.28;;;23.15;72.54
20009;BME280;10165;42.662;23.260;2023-08-06T04:07:44;92999.28;;;23.34;72.53
20009;BME280;10165;42.662;23.260;2023-08-06T04:10:11;92992.53;;;23.57;70.28
20009;BME280;10165;42.662;23.260;2023-08-06T04:12:38;92999.50;;;23.67;70.38
20009;BME280;10165;42.662;23.260;2023-08-06T04:15:06;93012.50;;;23.54;71.11
20009;BME280;10165;42.662;23.260;2023-08-06T04:17:33;93005.53;;;23.44;71.13
20009;BME280;10165;42.662;23.260;2023-08-06T04:20:00;93007.63;;;22.73;73.42
20009;BME280;10165;42.662;23.260;2023-08-06T04:22:27;93005.28;;;23.11;72.91
20009;BME280;10165;42.662;23.260;2023-08-06T04:24:54;92997.16;;;23.20;72.10
20009;BME280;10165;42.662;23.260;2023-08-06T04:27:21;92988.94;;;23.11;73.35
20009;BME280;10165;42.662;23.260;2023-08-06T04:29:47;92980.38;;;23.40;73.32
20009;BME280;10165;42.662;23.260;2023-08-06T04:32:14;92987.31;;;23.32;72.41
20009;BME280;10165;42.662;23.260;2023-08-06T04:34:41;92990.63;;;23.27;73.52
20009;BME280;10165;42.662;23.260;2023-08-06T04:37:08;92985.63;;;23.16;73.75
20009;BME280;10165;42.662;23.260;2023-08-06T04:39:34;92977.34;;;23.29;73.40
20009;BME280;10165;42.662;23.260;2023-08-06T04:42:01;92971.88;;;23.11;74.77
20009;BME280;10165;42.662;23.260;2023-08-06T04:44:29;92963.00;;;22.79;75.20
20009;BME280;10165;42.662;23.260;2023-08-06T04:46:56;92945.47;;;22.80;74.84
20009;BME280;10165;42.662;23.260;2023-08-06T04:49:22;92930.47;;;22.85;74.86
20009;BME280;10165;42.662;23.260;2023-08-06T04:51:49;92933.13;;;22.67;75.39
20009;BME280;10165;42.662;23.260;2023-08-06T04:54:17;92927.91;;;22.42;76.72
20009;BME280;10165;42.662;23.260;2023-08-06T04:56:43;92920.59;;;22.29;76.47
20009;BME280;10165;42.662;23.260;2023-08-06T04:59:10;92926.34;;;22.31;78.21
20009;BME280;10165;42.662;23.260;2023-08-06T05:01:37;92921.28;;;23.01;74.84
20009;BME280;10165;42.662;23.260;2023-08-06T05:04:03;92913.59;;;22.99;74.27
20009;BME280;10165;42.662;23.260;2023-08-06T05:06:30;92915.28;;;22.66;76.43
20009;BME280;10165;42.662;23.260;2023-08-06T05:08:57;92923.81;;;22.46;77.14
20009;BME280;10165;42.662;23.260;2023-08-06T05:11:24;92923.56;;;22.53;76.74
20009;BME280;10165;42.662;23.260;2023-08-06T05:13:51;92924.44;;;22.90;75.95
20009;BME280;10165;42.662;23.260;2023-08-06T05:16:17;92923.56;;;23.11;74.37
20009;BME280;10165;42.662;23.260;2023-08-06T05:18:44;92924.34;;;23.21;73.31
20009;BME280;10165;42.662;23.260;2023-08-06T05:21:11;92925.44;;;23.51;71.85
20009;BME280;10165;42.662;23.260;2023-08-06T05:23:38;92927.09;;;23.66;73.11
20009;BME280;10165;42.662;23.260;2023-08-06T05:26:05;92925.69;;;23.34;72.75
20009;BME280;10165;42.662;23.260;2023-08-06T05:28:31;92924.78;;;23.19;74.92
20009;BME280;10165;42.662;23.260;2023-08-06T05:30:58;92924.66;;;23.41;73.81
20009;BME280;10165;42.662;23.260;2023-08-06T05:33:25;92925.75;;;23.80;71.10
20009;BME280;10165;42.662;23.260;2023-08-06T05:35:51;92914.75;;;24.07;71.75
20009;BME280;10165;42.662;23.260;2023-08-06T05:38:18;92916.53;;;24.28;68.54
20009;BME280;10165;42.662;23.260;2023-08-06T05:40:45;92920.19;;;24.07;68.82
20009;BME280;10165;42.662;23.260;2023-08-06T05:43:12;92920.09;;;23.38;72.92
20009;BME280;10165;42.662;23.260;2023-08-06T05:45:38;92923.13;;;23.76;70.92
20009;BME280;10165;42.662;23.260;2023-08-06T05:48:05;92929.19;;;23.99;69.29
20009;BME280;10165;42.662;23.260;2023-08-06T05:50:32;92921.44;;;24.15;68.12
20009;BME280;10165;42.662;23.260;2023-08-06T05:52:59;92929.78;;;23.94;69.14
20009;BME280;10165;42.662;23.260;2023-08-06T05:55:27;92935.56;;;23.87;69.08
20009;BME280;10165;42.662;23.260;2023-08-06T05:57:54;92938.47;;;23.47;71.14
20009;BME280;10165;42.662;23.260;2023-08-06T06:00:22;92940.53;;;24.06;68.70
20009;BME280;10165;42.662;23.260;2023-08-06T06:02:48;92942.94;;;24.22;68.60
20009;BME280;10165;42.662;23.260;2023-08-06T06:05:15;92952.19;;;24.16;67.80
20009;BME280;10165;42.662;23.260;2023-08-06T06:07:42;92950.13;;;24.53;67.25
20009;BME280;10165;42.662;23.260;2023-08-06T06:10:09;92949.31;;;24.61;66.57
20009;BME280;10165;42.662;23.260;2023-08-06T06:12:38;92952.66;;;24.05;67.59
20009;BME280;10165;42.662;23.260;2023-08-06T06:15:05;92964.34;;;23.78;68.85
20009;BME280;10165;42.662;23.260;2023-08-06T06:17:32;92963.00;;;23.83;68.07
20009;BME280;10165;42.662;23.260;2023-08-06T06:19:59;92970.31;;;24.46;66.69
20009;BME280;10165;42.662;23.260;2023-08-06T06:22:25;92974.75;;;24.76;65.49
20009;BME280;10165;42.662;23.260;2023-08-06T06:24:52;92978.34;;;24.50;65.04
20009;BME280;10165;42.662;23.260;2023-08-06T06:27:19;92989.03;;;24.71;64.54
20009;BME280;10165;42.662;23.260;2023-08-06T06:29:46;92990.69;;;24.27;65.03
20009;BME280;10165;42.662;23.260;2023-08-06T06:32:12;92998.44;;;24.19;65.17
20009;BME280;10165;42.662;23.260;2023-08-06T06:34:39;92992.06;;;24.13;66.28
20009;BME280;10165;42.662;23.260;2023-08-06T06:37:06;92994.38;;;24.66;63.84
20009;BME280;10165;42.662;23.260;2023-08-06T06:39:32;92999.03;;;24.74;64.65
20009;BME280;10165;42.662;23.260;2023-08-06T06:41:59;93010.34;;;24.49;64.38
20009;BME280;10165;42.662;23.260;2023-08-06T06:44:26;93010.81;;;24.48;64.61
20009;BME280;10165;42.662;23.260;2023-08-06T06:46:53;93025.53;;;24.41;65.25
20009;BME280;10165;42.662;23.260;2023-08-06T06:49:19;93029.69;;;24.18;64.97
20009;BME280;10165;42.662;23.260;2023-08-06T06:51:46;93017.25;;;24.17;63.96
20009;BME280;10165;42.662;23.260;2023-08-06T06:54:13;93028.44;;;24.28;63.57
20009;BME280;10165;42.662;23.260;2023-08-06T06:56:40;93025.34;;;24.63;61.57
20009;BME280;10165;42.662;23.260;2023-08-06T06:59:06;93031.84;;;24.65;60.40
20009;BME280;10165;42.662;23.260;2023-08-06T07:01:33;93035.88;;;24.19;59.37
20009;BME280;10165;42.662;23.260;2023-08-06T07:04:00;93040.69;;;24.51;59.63
20009;BME280;10165;42.662;23.260;2023-08-06T07:06:31;93046.00;;;25.06;59.59
20009;BME280;10165;42.662;23.260;2023-08-06T07:08:58;93048.09;;;25.11;60.37
20009;BME280;10165;42.662;23.260;2023-08-06T07:11:25;93047.66;;;25.03;59.55
20009;BME280;10165;42.662;23.260;2023-08-06T07:13:56;93055.34;;;25.56;59.28
20009;BME280;10165;42.662;23.260;2023-08-06T07:16:25;93054.50;;;25.41;56.83
20009;BME280;10165;42.662;23.260;2023-08-06T07:18:54;93055.34;;;25.47;55.25
20009;BME280;10165;42.662;23.260;2023-08-06T07:21:21;93056.88;;;25.48;55.14
20009;BME280;10165;42.662;23.260;2023-08-06T07:23:48;93059.06;;;25.35;55.82
20009;BME280;10165;42.662;23.260;2023-08-06T07:26:18;93055.19;;;25.50;56.05
20009;BME280;10165;42.662;23.260;2023-08-06T07:28:44;93061.72;;;25.53;54.95
20009;BME280;10165;42.662;23.260;2023-08-06T07:31:11;93072.56;;;25.38;53.47
20009;BME280;10165;42.662;23.260;2023-08-06T07:33:38;93060.09;;;25.70;54.11
20009;BME280;10165;42.662;23.260;2023-08-06T07:36:13;93054.72;;;25.99;52.56
20009;BME280;10165;42.662;23.260;2023-08-06T07:38:41;93062.28;;;26.04;51.47
20009;BME280;10165;42.662;23.260;2023-08-06T07:41:08;93052.34;;;25.68;52.99
20009;BME280;10165;42.662;23.260;2023-08-06T07:43:35;93055.75;;;25.63;52.45
20009;BME280;10165;42.662;23.260;2023-08-06T07:46:02;93058.81;;;25.80;52.65
20009;BME280;10165;42.662;23.260;2023-08-06T07:48:29;93057.81;;;25.68;52.77
20009;BME280;10165;42.662;23.260;2023-08-06T07:50:57;93055.22;;;26.36;51.51
20009;BME280;10165;42.662;23.260;2023-08-06T07:53:24;93050.69;;;26.62;50.55
20009;BME280;10165;42.662;23.260;2023-08-06T07:55:56;93046.38;;;26.56;51.05
20009;BME280;10165;42.662;23.260;2023-08-06T07:58:24;93047.84;;;26.42;50.25
20009;BME280;10165;42.662;23.260;2023-08-06T08:00:51;93053.13;;;26.46;49.34
20009;BME280;10165;42.662;23.260;2023-08-06T08:03:18;93043.69;;;26.32;49.31
20009;BME280;10165;42.662;23.260;2023-08-06T08:05:46;93039.25;;;25.73;50.29
20009;BME280;10165;42.662;23.260;2023-08-06T08:08:13;93049.16;;;25.70;50.92
20009;BME280;10165;42.662;23.260;2023-08-06T08:10:40;93040.09;;;26.26;50.57
20009;BME280;10165;42.662;23.260;2023-08-06T08:13:07;93045.84;;;25.90;52.14
20009;BME280;10165;42.662;23.260;2023-08-06T08:15:34;93053.34;;;25.80;50.68
20009;BME280;10165;42.662;23.260;2023-08-06T08:18:01;93038.50;;;25.72;52.19
20009;BME280;10165;42.662;23.260;2023-08-06T08:20:28;93035.75;;;25.25;52.17
20009;BME280;10165;42.662;23.260;2023-08-06T08:23:01;93043.47;;;25.83;52.09
20009;BME280;10165;42.662;23.260;2023-08-06T08:25:28;93044.22;;;25.59;51.15
20009;BME280;10165;42.662;23.260;2023-08-06T08:27:57;93039.81;;;26.39;50.99
20009;BME280;10165;42.662;23.260;2023-08-06T08:30:24;93044.34;;;26.56;49.60
20009;BME280;10165;42.662;23.260;2023-08-06T08:32:52;93030.88;;;26.14;49.71
20009;BME280;10165;42.662;23.260;2023-08-06T08:35:19;93035.50;;;26.08;50.91
20009;BME280;10165;42.662;23.260;2023-08-06T08:37:46;93040.38;;;26.72;48.69
20009;BME280;10165;42.662;23.260;2023-08-06T08:40:14;93034.63;;;26.99;49.56
20009;BME280;10165;42.662;23.260;2023-08-06T08:42:42;93034.53;;;26.64;48.67
20009;BME280;10165;42.662;23.260;2023-08-06T08:45:13;93033.13;;;26.69;49.71
20009;BME280;10165;42.662;23.260;2023-08-06T08:47:41;93025.84;;;26.51;48.15
20009;BME280;10165;42.662;23.260;2023-08-06T08:50:10;93023.00;;;26.31;48.59
20009;BME280;10165;42.662;23.260;2023-08-06T08:52:42;93025.41;;;26.68;47.95
20009;BME280;10165;42.662;23.260;2023-08-06T08:55:14;93021.78;;;26.91;47.34
20009;BME280;10165;42.662;23.260;2023-08-06T08:57:41;93025.56;;;26.79;46.94
20009;BME280;10165;42.662;23.260;2023-08-06T09:00:08;93023.69;;;26.70;47.25
20009;BME280;10165;42.662;23.260;2023-08-06T09:02:37;93020.81;;;27.08;46.24
20009;BME280;10165;42.662;23.260;2023-08-06T09:05:06;93025.38;;;26.82;46.91
20009;BME280;10165;42.662;23.260;2023-08-06T09:07:48;93020.44;;;26.72;47.39
20009;BME280;10165;42.662;23.260;2023-08-06T09:10:16;93017.16;;;26.97;46.27
20009;BME280;10165;42.662;23.260;2023-08-06T09:12:45;93011.13;;;26.93;45.78
20009;BME280;10165;42.662;23.260;2023-08-06T09:15:11;93012.53;;;26.88;47.23
20009;BME280;10165;42.662;23.260;2023-08-06T09:17:39;93012.47;;;27.18;46.26
20009;BME280;10165;42.662;23.260;2023-08-06T09:20:13;93018.19;;;26.99;45.51
20009;BME280;10165;42.662;23.260;2023-08-06T09:22:41;93006.09;;;26.91;46.49
20009;BME280;10165;42.662;23.260;2023-08-06T09:25:08;93001.13;;;27.10;45.95
20009;BME280;10165;42.662;23.260;2023-08-06T09:27:40;93006.28;;;26.88;46.37
20009;BME280;10165;42.662;23.260;2023-08-06T09:30:07;93006.09;;;26.62;46.62
20009;BME280;10165;42.662;23.260;2023-08-06T09:32:48;93008.84;;;27.26;44.92
20009;BME280;10165;42.662;23.260;2023-08-06T09:35:16;93004.63;;;27.45;44.22
20009;BME280;10165;42.662;23.260;2023-08-06T09:37:43;93000.84;;;27.23;45.84
20009;BME280;10165;42.662;23.260;2023-08-06T09:40:27;92993.72;;;27.31;44.31
20009;BME280;10165;42.662;23.260;2023-08-06T09:42:55;92984.84;;;27.56;44.47
20009;BME280;10165;42.662;23.260;2023-08-06T09:45:22;92997.75;;;27.50;44.25
20009;BME280;10165;42.662;23.260;2023-08-06T09:47:50;92995.66;;;27.45;43.96
20009;BME280;10165;42.662;23.260;2023-08-06T09:50:18;93001.59;;;27.58;44.03
20009;BME280;10165;42.662;23.260;2023-08-06T09:52:47;93009.09;;;27.08;43.51
20009;BME280;10165;42.662;23.260;2023-08-06T09:55:15;92997.19;;;27.46;43.31
20009;BME280;10165;42.662;23.260;2023-08-06T09:57:42;93003.50;;;27.72;41.65
20009;BME280;10165;42.662;23.260;2023-08-06T10:00:10;93006.97;;;26.97;41.92
20009;BME280;10165;42.662;23.260;2023-08-06T10:02:38;93011.31;;;26.89;43.09
20009;BME280;10165;42.662;23.260;2023-08-06T10:05:07;93018.50;;;26.87;43.30
20009;BME280;10165;42.662;23.260;2023-08-06T10:07:35;93022.34;;;26.80;43.60
20009;BME280;10165;42.662;23.260;2023-08-06T10:10:02;93022.22;;;27.19;43.53
20009;BME280;10165;42.662;23.260;2023-08-06T10:12:35;93011.75;;;27.02;43.80
20009;BME280;10165;42.662;23.260;2023-08-06T10:15:09;93008.09;;;26.91;44.05
20009;BME280;10165;42.662;23.260;2023-08-06T10:17:37;93012.69;;;26.99;43.84
20009;BME280;10165;42.662;23.260;2023-08-06T10:20:17;93016.06;;;27.59;42.25
20009;BME280;10165;42.662;23.260;2023-08-06T10:22:45;93010.97;;;27.72;41.48
20009;BME280;10165;42.662;23.260;2023-08-06T10:25:16;93011.06;;;27.77;40.10
20009;BME280;10165;42.662;23.260;2023-08-06T10:30:31;93019.28;;;27.22;42.03
20009;BME280;10165;42.662;23.260;2023-08-06T10:33:03;93038.13;;;27.00;41.61
20009;BME280;10165;42.662;23.260;2023-08-06T10:35:50;93024.88;;;26.98;41.58
20009;BME280;10165;42.662;23.260;2023-08-06T10:38:21;93029.50;;;27.07;42.14
20009;BME280;10165;42.662;23.260;2023-08-06T10:43:32;93038.41;;;26.58;42.58
20009;BME280;10165;42.662;23.260;2023-08-06T10:46:01;93042.75;;;26.35;42.78
20009;BME280;10165;42.662;23.260;2023-08-06T10:48:36;93044.34;;;26.27;42.93
20009;BME280;10165;42.662;23.260;2023-08-06T10:51:08;93052.69;;;26.47;43.32
20009;BME280;10165;42.662;23.260;2023-08-06T10:53:35;93048.34;;;26.55;42.80
20009;BME280;10165;42.662;23.260;2023-08-06T10:56:15;93044.63;;;26.29;43.08
20009;BME280;10165;42.662;23.260;2023-08-06T10:58:43;93049.19;;;26.76;43.33
20009;BME280;10165;42.662;23.260;2023-08-06T11:01:10;93057.69;;;27.07;42.98
20009;BME280;10165;42.662;23.260;2023-08-06T11:03:38;93062.13;;;27.05;42.59
20009;BME280;10165;42.662;23.260;2023-08-06T11:06:08;93059.06;;;27.18;42.67
20009;BME280;10165;42.662;23.260;2023-08-06T11:08:40;93060.50;;;27.28;43.17
20009;BME280;10165;42.662;23.260;2023-08-06T11:11:12;93063.16;;;27.07;42.98
20009;BME280;10165;42.662;23.260;2023-08-06T11:13:43;93061.53;;;26.72;44.54
20009;BME280;10165;42.662;23.260;2023-08-06T11:16:17;93069.34;;;26.20;45.79
20009;BME280;10165;42.662;23.260;2023-08-06T11:18:45;93080.22;;;25.58;52.10
20009;BME280;10165;42.662;23.260;2023-08-06T11:21:12;93088.47;;;24.01;57.35
20009;BME280;10165;42.662;23.260;2023-08-06T11:23:40;93074.91;;;24.80;59.19
20009;BME280;10165;42.662;23.260;2023-08-06T11:26:07;93080.72;;;24.63;54.20
20009;BME280;10165;42.662;23.260;2023-08-06T11:28:34;93079.00;;;24.84;57.54
20009;BME280;10165;42.662;23.260;2023-08-06T11:31:02;93071.63;;;25.17;60.07
20009;BME280;10165;42.662;23.260;2023-08-06T11:33:30;93065.00;;;25.33;60.09
20009;BME280;10165;42.662;23.260;2023-08-06T11:35:59;93065.00;;;25.66;60.96
20009;BME280;10165;42.662;23.260;2023-08-06T11:38:28;93065.03;;;25.81;60.44
20009;BME280;10165;42.662;23.260;2023-08-06T11:40:55;93067.44;;;25.64;61.02
20009;BME280;10165;42.662;23.260;2023-08-06T11:43:22;93052.34;;;25.45;58.89
20009;BME280;10165;42.662;23.260;2023-08-06T11:45:50;93048.53;;;25.75;56.73
20009;BME280;10165;42.662;23.260;2023-08-06T11:48:21;93044.16;;;26.07;56.78
20009;BME280;10165;42.662;23.260;2023-08-06T11:50:48;93045.44;;;25.58;54.11
20009;BME280;10165;42.662;23.260;2023-08-06T11:53:15;93048.44;;;25.84;52.95
20009;BME280;10165;42.662;23.260;2023-08-06T11:55:44;93046.78;;;25.30;52.68
20009;BME280;10165;42.662;23.260;2023-08-06T11:58:10;93044.41;;;25.56;54.16
20009;BME280;10165;42.662;23.260;2023-08-06T12:00:38;93049.84;;;26.18;49.80
20009;BME280;10165;42.662;23.260;2023-08-06T12:03:05;93043.78;;;25.99;48.88
20009;BME280;10165;42.662;23.260;2023-08-06T12:05:33;93045.72;;;25.84;47.20
20009;BME280;10165;42.662;23.260;2023-08-06T12:08:01;93035.31;;;26.12;49.57
20009;BME280;10165;42.662;23.260;2023-08-06T12:10:29;93032.31;;;26.10;48.33
20009;BME280;10165;42.662;23.260;2023-08-06T12:12:56;93033.91;;;25.78;47.75
20009;BME280;10165;42.662;23.260;2023-08-06T12:15:23;93038.22;;;25.70;48.87
20009;BME280;10165;42.662;23.260;2023-08-06T12:17:50;93029.50;;;25.95;48.89
20009;BME280;10165;42.662;23.260;2023-08-06T12:20:17;93032.56;;;26.36;48.17
20009;BME280;10165;42.662;23.260;2023-08-06T12:22:44;93029.16;;;26.55;47.91
20009;BME280;10165;42.662;23.260;2023-08-06T12:25:12;93039.47;;;26.75;47.88
20009;BME280;10165;42.662;23.260;2023-08-06T12:27:43;93034.66;;;26.41;47.73
20009;BME280;10165;42.662;23.260;2023-08-06T12:30:11;93041.41;;;26.31;46.59
20009;BME280;10165;42.662;23.260;2023-08-06T12:32:39;93032.19;;;26.57;47.32
20009;BME280;10165;42.662;23.260;2023-08-06T12:35:07;93039.16;;;27.02;46.88
20009;BME280;10165;42.662;23.260;2023-08-06T12:37:34;93043.59;;;27.15;46.60
20009;BME280;10165;42.662;23.260;2023-08-06T12:40:02;93046.50;;;27.26;47.06
20009;BME280;10165;42.662;23.260;2023-08-06T12:42:50;93031.81;;;27.43;45.32
20009;BME280;10165;42.662;23.260;2023-08-06T12:45:17;93029.44;;;27.51;45.71
20009;BME280;10165;42.662;23.260;2023-08-06T12:47:48;93028.47;;;27.54;45.05
20009;BME280;10165;42.662;23.260;2023-08-06T12:50:16;93029.72;;;27.73;44.88
20009;BME280;10165;42.662;23.260;2023-08-06T12:52:44;93029.66;;;27.88;48.34
20009;BME280;10165;42.662;23.260;2023-08-06T12:55:11;93031.22;;;27.54;45.69
20009;BME280;10165;42.662;23.260;2023-08-06T12:57:37;93031.81;;;27.64;48.54
20009;BME280;10165;42.662;23.260;2023-08-06T13:00:22;93025.72;;;27.19;46.23
20009;BME280;10165;42.662;23.260;2023-08-06T13:02:49;93026.06;;;27.27;45.80
20009;BME280;10165;42.662;23.260;2023-08-06T13:05:16;93026.38;;;27.14;45.94